createdAt,value
2018-09-17T00:00:23.747Z,13.40
2018-09-17T00:02:52.364Z,13.30
2018-09-17T00:05:20.991Z,13.30
2018-09-17T00:07:49.604Z,13.30
2018-09-17T00:10:18.252Z,13.20
2018-09-17T00:12:46.888Z,13.20
2018-09-17T00:15:15.550Z,13.20
2018-09-17T00:17:44.163Z,13.20
2018-09-17T00:20:12.775Z,13.10
2018-09-17T00:22:41.380Z,13.00
2018-09-17T00:25:10.003Z,13.00
2018-09-17T00:27:38.598Z,13.00
2018-09-17T00:30:07.219Z,13.00
2018-09-17T00:32:35.918Z,12.90
2018-09-17T00:35:04.481Z,12.80
2018-09-17T00:37:33.126Z,12.80
2018-09-17T00:40:01.776Z,12.80
2018-09-17T00:42:30.384Z,12.70
2018-09-17T00:44:59.005Z,12.40
2018-09-17T00:47:27.603Z,12.50
2018-09-17T00:49:56.212Z,12.50
2018-09-17T00:52:24.821Z,12.60
2018-09-17T00:54:53.450Z,12.60
2018-09-17T00:57:22.138Z,12.60
2018-09-17T00:59:50.795Z,12.60
2018-09-17T01:02:19.448Z,12.60
2018-09-17T01:04:48.091Z,12.50
2018-09-17T01:07:16.699Z,12.40
2018-09-17T01:09:45.323Z,12.40
2018-09-17T01:12:15.266Z,12.40
2018-09-17T01:14:44.079Z,12.40
2018-09-17T01:17:12.707Z,12.40
2018-09-17T01:19:41.332Z,12.40
2018-09-17T01:22:09.936Z,12.40
2018-09-17T01:24:38.555Z,12.30
2018-09-17T01:27:07.172Z,12.40
2018-09-17T01:29:35.803Z,12.30
2018-09-17T01:32:04.403Z,12.30
2018-09-17T01:34:33.049Z,12.30
2018-09-17T01:37:01.677Z,12.30
2018-09-17T01:39:30.293Z,12.20
2018-09-17T01:41:58.918Z,12.20
2018-09-17T01:44:27.540Z,12.20
2018-09-17T01:46:56.184Z,12.20
2018-09-17T01:49:24.806Z,12.20
2018-09-17T01:51:53.555Z,12.20
2018-09-17T01:54:22.189Z,12.10
2018-09-17T01:56:50.825Z,12.00
2018-09-17T01:59:19.473Z,12.00
2018-09-17T02:01:48.108Z,12.00
2018-09-17T02:04:16.756Z,12.10
2018-09-17T02:06:45.402Z,12.00
2018-09-17T02:09:14.037Z,12.10
2018-09-17T02:11:42.628Z,12.10
2018-09-17T02:14:11.239Z,12.10
2018-09-17T02:16:39.856Z,12.10
2018-09-17T02:19:08.498Z,12.10
2018-09-17T02:21:37.115Z,12.10
2018-09-17T02:24:05.760Z,12.10
2018-09-17T02:26:34.359Z,12.10
2018-09-17T02:29:02.966Z,12.00
2018-09-17T02:31:31.590Z,12.00
2018-09-17T02:34:00.193Z,11.80
2018-09-17T02:36:28.805Z,11.90
2018-09-17T02:38:57.424Z,11.90
2018-09-17T02:41:26.055Z,11.90
2018-09-17T02:43:54.655Z,11.90
2018-09-17T02:46:23.275Z,11.90
2018-09-17T02:48:51.908Z,11.90
2018-09-17T02:51:20.524Z,11.90
2018-09-17T02:53:49.143Z,11.90
2018-09-17T02:56:17.772Z,11.80
2018-09-17T02:58:46.431Z,11.80
2018-09-17T03:01:15.308Z,11.80
2018-09-17T03:03:43.950Z,11.80
2018-09-17T03:06:12.569Z,11.70
2018-09-17T03:08:41.171Z,11.70
2018-09-17T03:11:09.788Z,11.80
2018-09-17T03:13:38.419Z,11.70
2018-09-17T03:16:07.023Z,11.70
2018-09-17T03:18:45.761Z,11.70
2018-09-17T03:21:14.384Z,11.70
2018-09-17T03:23:42.995Z,11.70
2018-09-17T03:26:11.617Z,11.70
2018-09-17T03:28:40.301Z,11.70
2018-09-17T03:31:08.936Z,11.70
2018-09-17T03:33:37.543Z,11.50
2018-09-17T03:36:06.207Z,11.50
2018-09-17T03:38:45.532Z,11.60
2018-09-17T03:41:14.636Z,11.60
2018-09-17T03:43:44.797Z,11.60
2018-09-17T03:46:13.422Z,11.60
2018-09-17T03:48:42.113Z,11.60
2018-09-17T03:51:11.691Z,11.60
2018-09-17T03:53:40.690Z,11.60
2018-09-17T03:56:09.300Z,11.60
2018-09-17T03:58:37.899Z,11.60
2018-09-17T04:01:07.170Z,11.50
2018-09-17T04:03:35.838Z,11.60
2018-09-17T04:06:04.472Z,11.50
2018-09-17T04:08:33.702Z,11.60
2018-09-17T04:11:02.404Z,11.50
2018-09-17T04:13:31.013Z,11.50
2018-09-17T04:15:59.629Z,11.50
2018-09-17T04:18:28.289Z,11.50
2018-09-17T04:20:56.911Z,11.50
2018-09-17T04:23:29.968Z,11.50
2018-09-17T04:25:58.815Z,11.50
2018-09-17T04:28:27.451Z,11.60
2018-09-17T04:30:56.195Z,11.50
2018-09-17T04:33:25.525Z,11.50
2018-09-17T04:35:54.157Z,11.50
2018-09-17T04:38:22.781Z,11.50
2018-09-17T04:40:51.379Z,11.50
2018-09-17T04:43:19.999Z,11.40
2018-09-17T04:45:48.644Z,11.40
2018-09-17T04:48:17.284Z,11.40
2018-09-17T04:50:45.897Z,11.40
2018-09-17T04:53:14.511Z,11.40
2018-09-17T04:55:43.111Z,11.40
2018-09-17T04:58:11.730Z,11.40
2018-09-17T05:00:40.418Z,11.40
2018-09-17T05:03:09.027Z,11.40
2018-09-17T05:05:37.668Z,11.40
2018-09-17T05:08:06.296Z,11.40
2018-09-17T05:10:34.895Z,11.40
2018-09-17T05:13:03.559Z,11.40
2018-09-17T05:15:32.612Z,11.40
2018-09-17T05:18:01.221Z,11.40
2018-09-17T05:20:29.856Z,11.40
2018-09-17T05:22:58.440Z,11.40
2018-09-17T05:25:27.031Z,11.50
2018-09-17T05:27:55.660Z,11.50
2018-09-17T05:30:24.280Z,11.50
2018-09-17T05:32:52.891Z,11.50
2018-09-17T05:35:21.504Z,11.60
2018-09-17T05:37:50.120Z,11.60
2018-09-17T05:40:18.740Z,11.60
2018-09-17T05:42:47.375Z,11.60
2018-09-17T05:45:15.984Z,11.70
2018-09-17T05:47:44.617Z,11.70
2018-09-17T05:50:13.213Z,11.80
2018-09-17T05:52:41.828Z,11.90
2018-09-17T05:55:10.446Z,12.00
2018-09-17T05:57:39.064Z,12.10
2018-09-17T06:00:08.056Z,12.10
2018-09-17T06:02:36.681Z,12.10
2018-09-17T06:05:05.299Z,12.20
2018-09-17T06:07:33.928Z,12.30
2018-09-17T06:10:02.543Z,12.40
2018-09-17T06:12:31.159Z,12.40
2018-09-17T06:14:59.768Z,12.50
2018-09-17T06:17:28.436Z,12.60
2018-09-17T06:19:57.007Z,12.60
2018-09-17T06:22:25.632Z,12.70
2018-09-17T06:24:54.291Z,12.60
2018-09-17T06:27:22.899Z,12.60
2018-09-17T06:29:51.601Z,12.70
2018-09-17T06:32:20.227Z,12.70
2018-09-17T06:34:48.859Z,12.90
2018-09-17T06:37:17.664Z,13.00
2018-09-17T06:39:46.340Z,13.10
2018-09-17T06:42:14.979Z,13.20
2018-09-17T06:44:43.610Z,13.30
2018-09-17T06:47:12.329Z,13.40
2018-09-17T06:49:40.988Z,13.50
2018-09-17T06:52:09.640Z,13.60
2018-09-17T06:54:38.263Z,13.70
2018-09-17T06:57:06.895Z,13.90
2018-09-17T06:59:35.515Z,13.90
2018-09-17T07:02:04.153Z,14.00
2018-09-17T07:04:32.778Z,14.10
2018-09-17T07:07:01.393Z,14.20
2018-09-17T07:09:30.012Z,14.30
2018-09-17T07:11:58.630Z,14.50
2018-09-17T07:14:27.256Z,14.70
2018-09-17T07:16:55.867Z,15.10
2018-09-17T07:19:24.527Z,15.40
2018-09-17T07:21:53.160Z,15.50
2018-09-17T07:24:21.788Z,15.50
2018-09-17T07:26:50.406Z,15.60
2018-09-17T07:29:19.024Z,15.70
2018-09-17T07:31:47.660Z,15.80
2018-09-17T07:34:16.291Z,15.80
2018-09-17T07:36:44.932Z,16.00
2018-09-17T07:39:13.552Z,16.10
2018-09-17T07:41:42.157Z,16.20
2018-09-17T07:44:10.780Z,16.40
2018-09-17T07:46:39.393Z,16.50
2018-09-17T07:49:08.011Z,16.60
2018-09-17T07:51:36.630Z,16.80
2018-09-17T07:54:05.280Z,16.90
2018-09-17T07:56:33.937Z,17.00
2018-09-17T07:59:02.563Z,17.10
2018-09-17T08:01:31.175Z,17.30
2018-09-17T08:03:59.819Z,17.40
2018-09-17T08:06:28.447Z,17.70
2018-09-17T08:08:57.064Z,17.90
2018-09-17T08:11:25.683Z,18.40
2018-09-17T08:13:54.304Z,18.90
2018-09-17T08:16:22.911Z,19.30
2018-09-17T08:18:51.537Z,19.40
2018-09-17T08:21:20.160Z,19.30
2018-09-17T08:23:48.797Z,19.40
2018-09-17T08:26:17.432Z,19.40
2018-09-17T08:28:46.063Z,19.70
2018-09-17T08:31:14.691Z,19.80
2018-09-17T08:33:43.367Z,19.90
2018-09-17T08:36:12.072Z,19.80
2018-09-17T08:38:40.698Z,19.90
2018-09-17T08:41:09.331Z,20.10
2018-09-17T08:43:37.947Z,20.30
2018-09-17T08:46:06.653Z,20.50
2018-09-17T08:48:35.255Z,20.90
2018-09-17T08:51:03.871Z,20.80
2018-09-17T08:53:32.479Z,21.00
2018-09-17T08:56:06.590Z,20.90
2018-09-17T08:58:40.501Z,21.40
2018-09-17T09:01:13.353Z,21.50
2018-09-17T09:03:47.513Z,21.20
2018-09-17T09:06:18.575Z,21.30
2018-09-17T09:08:47.456Z,21.60
2018-09-17T09:11:19.873Z,21.50
2018-09-17T09:13:54.803Z,21.70
2018-09-17T09:16:24.103Z,22.30
2018-09-17T09:18:52.700Z,22.50
2018-09-17T09:21:21.312Z,23.00
2018-09-17T09:23:49.911Z,23.40
2018-09-17T09:26:18.584Z,23.30
2018-09-17T09:28:47.142Z,23.10
2018-09-17T09:31:15.781Z,23.20
2018-09-17T09:33:44.371Z,23.30
2018-09-17T09:36:12.976Z,23.30
2018-09-17T09:38:41.593Z,23.80
2018-09-17T09:41:10.187Z,24.10
2018-09-17T09:43:38.795Z,24.40
2018-09-17T09:46:07.396Z,24.30
2018-09-17T09:48:36.016Z,24.10
2018-09-17T09:51:04.690Z,24.10
2018-09-17T09:53:33.301Z,24.00
2018-09-17T09:56:01.917Z,23.70
2018-09-17T09:58:30.504Z,23.50
2018-09-17T10:01:04.540Z,23.70
2018-09-17T10:03:38.584Z,24.00
2018-09-17T10:06:07.209Z,24.00
2018-09-17T10:08:41.808Z,24.60
2018-09-17T10:11:15.962Z,25.10
2018-09-17T10:13:49.928Z,25.00
2018-09-17T10:16:19.783Z,25.70
2018-09-17T10:18:53.987Z,26.00
2018-09-17T10:21:23.066Z,26.50
2018-09-17T10:23:51.711Z,26.00
2018-09-17T10:26:20.447Z,26.00
2018-09-17T10:28:49.392Z,26.20
2018-09-17T10:31:18.455Z,26.90
2018-09-17T10:33:47.480Z,27.80
2018-09-17T10:36:16.522Z,28.40
2018-09-17T10:38:45.307Z,28.10
2018-09-17T10:41:14.008Z,27.70
2018-09-17T10:43:42.618Z,26.90
2018-09-17T10:46:11.290Z,27.00
2018-09-17T10:48:39.899Z,27.30
2018-09-17T10:51:08.515Z,27.20
2018-09-17T10:53:37.130Z,26.80
2018-09-17T10:56:06.163Z,26.80
2018-09-17T10:58:34.907Z,27.10
2018-09-17T11:01:03.571Z,27.90
2018-09-17T11:03:32.188Z,27.80
2018-09-17T11:06:00.802Z,28.40
2018-09-17T11:08:29.435Z,28.80
2018-09-17T11:10:58.053Z,28.90
2018-09-17T11:13:26.666Z,28.70
2018-09-17T11:15:55.279Z,29.40
2018-09-17T11:18:23.895Z,30.20
2018-09-17T11:20:52.522Z,30.30
2018-09-17T11:23:21.208Z,30.50
2018-09-17T11:25:49.912Z,31.00
2018-09-17T11:28:18.956Z,31.20
2018-09-17T11:30:48.189Z,31.40
2018-09-17T11:33:17.416Z,31.40
2018-09-17T11:35:46.861Z,31.60
2018-09-17T11:38:15.543Z,32.30
2018-09-17T11:40:44.212Z,32.80
2018-09-17T11:43:12.807Z,32.80
2018-09-17T11:45:41.414Z,32.30
2018-09-17T11:48:10.052Z,32.50
2018-09-17T11:50:38.659Z,32.80
2018-09-17T11:53:07.351Z,32.80
2018-09-17T11:55:35.938Z,33.40
2018-09-17T11:58:04.566Z,33.40
2018-09-17T12:00:38.559Z,33.80
2018-09-17T12:03:12.724Z,34.90
2018-09-17T12:05:46.856Z,35.60
2018-09-17T12:08:17.231Z,33.90
2018-09-17T12:10:46.081Z,33.80
2018-09-17T12:13:14.760Z,33.60
2018-09-17T12:15:44.075Z,35.20
2018-09-17T12:18:13.652Z,35.10
2018-09-17T12:20:42.267Z,35.30
2018-09-17T12:23:11.118Z,34.70
2018-09-17T12:25:39.735Z,34.70
2018-09-17T12:28:08.423Z,35.40
2018-09-17T12:30:37.031Z,35.60
2018-09-17T12:33:05.715Z,35.70
2018-09-17T12:35:34.337Z,35.90
2018-09-17T12:38:02.944Z,35.60
2018-09-17T12:40:31.551Z,34.50
2018-09-17T12:43:00.172Z,33.10
2018-09-17T12:45:28.783Z,32.10
2018-09-17T12:47:57.411Z,31.90
2018-09-17T12:50:26.035Z,31.30
2018-09-17T12:52:54.672Z,32.10
2018-09-17T12:55:23.287Z,32.10
2018-09-17T12:57:51.927Z,32.60
2018-09-17T13:00:20.580Z,33.50
2018-09-17T13:02:49.240Z,33.60
2018-09-17T13:05:18.151Z,34.30
2018-09-17T13:07:47.046Z,33.50
2018-09-17T13:10:15.964Z,32.20
2018-09-17T13:12:44.759Z,32.20
2018-09-17T13:15:13.357Z,32.50
2018-09-17T13:17:41.982Z,32.60
2018-09-17T13:20:10.632Z,33.10
2018-09-17T13:22:39.263Z,34.00
2018-09-17T13:25:07.874Z,34.80
2018-09-17T13:27:36.482Z,34.20
2018-09-17T13:30:05.234Z,33.60
2018-09-17T13:32:33.860Z,33.10
2018-09-17T13:35:02.454Z,33.60
2018-09-17T13:37:31.063Z,33.60
2018-09-17T13:39:59.712Z,33.30
2018-09-17T13:42:28.361Z,34.30
2018-09-17T13:44:57.013Z,34.10
2018-09-17T13:47:25.622Z,34.80
2018-09-17T13:49:54.236Z,34.20
2018-09-17T13:52:22.916Z,33.60
2018-09-17T13:54:51.609Z,33.50
2018-09-17T13:57:21.127Z,33.00
2018-09-17T13:59:49.769Z,33.50
2018-09-17T14:02:18.663Z,33.10
2018-09-17T14:04:47.457Z,32.70
2018-09-17T14:07:16.347Z,33.60
2018-09-17T14:09:45.033Z,33.20
2018-09-17T14:12:13.655Z,33.00
2018-09-17T14:14:42.264Z,33.50
2018-09-17T14:17:10.880Z,34.80
2018-09-17T14:19:39.497Z,34.70
2018-09-17T14:22:08.084Z,33.80
2018-09-17T14:24:36.706Z,33.40
2018-09-17T14:27:05.370Z,34.30
2018-09-17T14:29:33.949Z,34.20
2018-09-17T14:32:07.822Z,34.80
2018-09-17T14:34:36.458Z,34.80
2018-09-17T14:37:05.050Z,34.30
2018-09-17T14:39:33.653Z,34.20
2018-09-17T14:42:02.271Z,34.60
2018-09-17T14:44:30.906Z,34.00
2018-09-17T14:46:59.520Z,33.40
2018-09-17T14:49:28.158Z,32.40
2018-09-17T14:51:56.803Z,33.10
2018-09-17T14:54:25.509Z,33.70
2018-09-17T14:56:54.081Z,33.80
2018-09-17T14:59:22.700Z,33.90
2018-09-17T15:01:51.364Z,34.10
2018-09-17T15:04:20.049Z,34.40
2018-09-17T15:06:48.653Z,34.80
2018-09-17T15:09:17.560Z,34.50
2018-09-17T15:11:50.130Z,34.40
2018-09-17T15:14:19.233Z,34.50
2018-09-17T15:16:48.537Z,33.90
2018-09-17T15:19:19.237Z,33.80
2018-09-17T15:21:48.370Z,33.50
2018-09-17T15:24:17.444Z,33.70
2018-09-17T15:26:46.036Z,33.50
2018-09-17T15:29:16.057Z,33.40
2018-09-17T15:31:45.144Z,33.30
2018-09-17T15:34:14.955Z,33.00
2018-09-17T15:36:43.593Z,32.90
2018-09-17T15:39:13.591Z,33.00
2018-09-17T15:41:43.770Z,32.80
2018-09-17T15:44:12.397Z,32.90
2018-09-17T15:46:41.054Z,32.50
2018-09-17T15:49:09.594Z,32.50
2018-09-17T15:51:38.201Z,32.30
2018-09-17T15:54:06.800Z,32.20
2018-09-17T15:56:35.508Z,32.40
2018-09-17T15:59:04.103Z,32.10
2018-09-17T16:01:32.724Z,31.70
2018-09-17T16:04:01.325Z,31.10
2018-09-17T16:06:29.958Z,30.70
2018-09-17T16:08:58.673Z,30.00
2018-09-17T16:11:27.387Z,29.70
2018-09-17T16:13:59.369Z,29.40
2018-09-17T16:16:29.122Z,29.00
2018-09-17T16:18:57.797Z,28.70
2018-09-17T16:21:26.496Z,28.20
2018-09-17T16:23:55.137Z,28.00
2018-09-17T16:26:23.739Z,27.70
2018-09-17T16:28:52.363Z,27.40
2018-09-17T16:31:21.012Z,27.20
2018-09-17T16:33:49.944Z,27.00
2018-09-17T16:36:19.633Z,26.80
2018-09-17T16:38:49.027Z,26.60
2018-09-17T16:41:17.643Z,26.60
2018-09-17T16:43:46.380Z,26.40
2018-09-17T16:46:14.983Z,26.30
2018-09-17T16:48:43.603Z,26.20
2018-09-17T16:51:12.438Z,26.00
2018-09-17T16:53:41.142Z,25.90
2018-09-17T16:56:09.952Z,25.70
2018-09-17T16:58:38.820Z,25.50
2018-09-17T17:01:07.425Z,25.30
2018-09-17T17:03:36.072Z,25.00
2018-09-17T17:06:04.675Z,24.80
2018-09-17T17:08:33.327Z,24.70
2018-09-17T17:11:02.028Z,24.50
2018-09-17T17:13:30.524Z,24.40
2018-09-17T17:15:59.706Z,24.20
2018-09-17T17:18:28.573Z,24.00
2018-09-17T17:20:57.264Z,23.80
2018-09-17T17:23:27.627Z,23.60
2018-09-17T17:25:56.335Z,23.40
2018-09-17T17:28:25.028Z,23.30
2018-09-17T17:30:53.571Z,23.10
2018-09-17T17:33:22.211Z,22.90
2018-09-17T17:35:50.817Z,22.80
2018-09-17T17:38:19.422Z,22.60
2018-09-17T17:40:48.135Z,22.50
2018-09-17T17:43:16.653Z,22.30
2018-09-17T17:45:45.264Z,22.20
2018-09-17T17:48:13.909Z,22.10
2018-09-17T17:50:42.539Z,22.00
2018-09-17T17:53:11.144Z,21.90
2018-09-17T17:55:39.748Z,21.70
2018-09-17T17:58:08.382Z,21.60
2018-09-17T18:00:37.126Z,21.50
2018-09-17T18:03:05.720Z,21.40
2018-09-17T18:05:34.343Z,21.20
2018-09-17T18:08:02.959Z,21.10
2018-09-17T18:10:31.596Z,21.00
2018-09-17T18:13:00.200Z,20.90
2018-09-17T18:15:28.813Z,20.80
2018-09-17T18:17:57.439Z,20.80
2018-09-17T18:20:26.047Z,20.70
2018-09-17T18:22:54.701Z,20.60
2018-09-17T18:25:23.299Z,20.60
2018-09-17T18:27:51.899Z,20.50
2018-09-17T18:30:20.529Z,20.40
2018-09-17T18:32:49.153Z,20.30
2018-09-17T18:35:17.826Z,20.30
2018-09-17T18:37:46.438Z,20.10
2018-09-17T18:40:15.047Z,20.00
2018-09-17T18:42:43.781Z,20.00
2018-09-17T18:45:12.300Z,19.90
2018-09-17T18:47:40.918Z,19.80
2018-09-17T18:50:09.508Z,19.70
2018-09-17T18:52:38.120Z,19.60
2018-09-17T18:55:06.797Z,19.50
2018-09-17T18:57:35.448Z,19.40
2018-09-17T19:00:04.089Z,19.40
2018-09-17T19:02:32.660Z,19.30
2018-09-17T19:05:01.383Z,19.20
2018-09-17T19:07:29.986Z,19.20
2018-09-17T19:09:58.598Z,19.10
2018-09-17T19:12:27.274Z,19.00
2018-09-17T19:15:01.333Z,18.90
2018-09-17T19:17:35.359Z,18.80
2018-09-17T19:20:04.298Z,18.80
2018-09-17T19:22:38.425Z,18.70
2018-09-17T19:25:07.080Z,18.60
2018-09-17T19:27:41.281Z,18.60
2018-09-17T19:30:10.001Z,18.60
2018-09-17T19:32:38.565Z,18.50
2018-09-17T19:35:07.168Z,18.40
2018-09-17T19:37:41.322Z,18.40
2018-09-17T19:40:14.999Z,18.40
2018-09-17T19:42:44.571Z,18.40
2018-09-17T19:45:18.380Z,18.30
2018-09-17T19:47:47.104Z,18.20
2018-09-17T19:50:21.238Z,18.30
2018-09-17T19:52:49.887Z,18.20
2018-09-17T19:55:18.629Z,18.20
2018-09-17T19:57:52.775Z,18.10
2018-09-17T20:00:21.441Z,18.10
2018-09-17T20:02:50.008Z,18.00
2018-09-17T20:05:24.021Z,17.90
2018-09-17T20:07:53.048Z,17.80
2018-09-17T20:10:21.791Z,17.80
2018-09-17T20:12:50.582Z,17.70
2018-09-17T20:15:19.205Z,17.50
2018-09-17T20:17:47.869Z,17.50
2018-09-17T20:20:16.552Z,17.50
2018-09-17T20:22:45.240Z,17.50
2018-09-17T20:25:13.944Z,17.50
2018-09-17T20:27:42.559Z,17.40
2018-09-17T20:30:11.183Z,17.40
2018-09-17T20:33:43.049Z,17.50
2018-09-17T20:36:11.715Z,17.40
2018-09-17T20:38:40.442Z,17.40
2018-09-17T20:41:08.993Z,17.30
2018-09-17T20:43:37.621Z,17.30
2018-09-17T20:46:06.314Z,17.20
2018-09-17T20:48:35.073Z,17.20
2018-09-17T20:51:03.702Z,17.20
2018-09-17T20:53:32.319Z,17.00
2018-09-17T20:56:00.947Z,17.00
2018-09-17T20:58:29.598Z,17.00
2018-09-17T21:00:58.466Z,17.00
2018-09-17T21:03:27.036Z,16.90
2018-09-17T21:05:55.708Z,17.00
2018-09-17T21:08:24.328Z,16.90
2018-09-17T21:10:53.004Z,16.90
2018-09-17T21:13:21.636Z,16.80
2018-09-17T21:15:50.375Z,16.80
2018-09-17T21:18:18.992Z,16.80
2018-09-17T21:20:47.689Z,16.70
2018-09-17T21:23:16.307Z,16.70
2018-09-17T21:25:44.914Z,16.70
2018-09-17T21:28:13.533Z,16.70
2018-09-17T21:30:42.203Z,16.60
2018-09-17T21:33:10.842Z,16.50
2018-09-17T21:35:39.444Z,16.50
2018-09-17T21:38:08.079Z,16.50
2018-09-17T21:40:36.743Z,16.50
2018-09-17T21:43:05.362Z,16.40
2018-09-17T21:45:33.935Z,16.30
2018-09-17T21:48:02.531Z,16.30
2018-09-17T21:50:31.185Z,16.20
2018-09-17T21:52:59.868Z,16.20
2018-09-17T21:55:28.699Z,16.20
2018-09-17T21:57:57.315Z,16.20
2018-09-17T22:00:30.184Z,16.10
2018-09-17T22:02:58.867Z,16.00
2018-09-17T22:05:27.484Z,16.00
2018-09-17T22:07:56.080Z,16.00
2018-09-17T22:10:24.729Z,15.90
2018-09-17T22:12:53.360Z,15.90
2018-09-17T22:15:21.973Z,15.90
2018-09-17T22:17:50.656Z,15.80
2018-09-17T22:20:19.492Z,15.80
2018-09-17T22:22:48.166Z,15.70
2018-09-17T22:25:16.868Z,15.70
2018-09-17T22:27:45.588Z,15.70
2018-09-17T22:30:14.207Z,15.70
2018-09-17T22:32:42.807Z,15.70
2018-09-17T22:35:11.453Z,15.70
2018-09-17T22:37:40.028Z,15.60
2018-09-17T22:40:08.657Z,15.60
2018-09-17T22:42:37.266Z,15.50
2018-09-17T22:45:05.960Z,15.50
2018-09-17T22:47:34.620Z,15.50
2018-09-17T22:50:03.386Z,15.40
2018-09-17T22:52:31.988Z,15.50
2018-09-17T22:55:00.589Z,15.50
2018-09-17T22:57:29.203Z,15.50
2018-09-17T22:59:57.936Z,15.40
2018-09-17T23:02:26.562Z,15.40
2018-09-17T23:04:55.159Z,15.40
2018-09-17T23:07:23.798Z,15.40
2018-09-17T23:09:52.407Z,15.40
2018-09-17T23:12:21.043Z,15.40
2018-09-17T23:14:49.658Z,15.40
2018-09-17T23:17:18.297Z,15.30
2018-09-17T23:19:46.915Z,15.30
2018-09-17T23:22:15.639Z,15.30
2018-09-17T23:24:44.246Z,15.20
2018-09-17T23:27:12.867Z,15.20
2018-09-17T23:29:41.479Z,15.10
2018-09-17T23:32:10.097Z,15.10
2018-09-17T23:34:38.704Z,15.10
2018-09-17T23:37:07.373Z,15.00
2018-09-17T23:39:35.997Z,14.90
2018-09-17T23:42:04.607Z,14.90
2018-09-17T23:44:33.219Z,14.90
2018-09-17T23:47:01.861Z,14.80
2018-09-17T23:49:31.423Z,14.80
2018-09-17T23:52:00.056Z,14.80
2018-09-17T23:54:28.666Z,14.80
2018-09-17T23:56:57.295Z,14.80
2018-09-17T23:59:25.913Z,14.80
